Time;durP1;ratioP1;P1;durP2;ratioP2;P2;SDS_P1;SDS_P2;PMS_P1;PMS_P2;Temp;Humidity;BMP_temperature;BMP_pressure;BME280_temperature;BME280_humidity;BME280_pressure;Samples;Min_cycle;Max_cycle;Signal;HPM_P1;HPM_P2
2024/04/13 00:01:34;;;;;;;15.77;9.00;;;461.50;2380.80;;;;;;5419160;26;19999;-73
2024/04/13 00:04:02;;;;;;;14.75;8.95;;;461.50;2380.80;;;;;;5419279;26;20006;-71
2024/04/13 00:06:28;;;;;;;19.63;10.35;;;461.50;2380.80;;;;;;5418595;26;20326;-76
2024/04/13 00:08:55;;;;;;;22.65;12.68;;;461.60;2380.80;;;;;;5419141;26;20028;-73
2024/04/13 00:11:21;;;;;;;20.77;10.27;;;461.70;2380.80;;;;;;5419074;26;20018;-76
2024/04/13 00:13:49;;;;;;;15.18;9.20;;;461.70;2380.80;;;;;;5419161;26;20010;-71
2024/04/13 00:16:16;;;;;;;12.98;8.20;;;461.70;2380.80;;;;;;5419034;26;20039;-75
2024/04/13 00:18:42;;;;;;;10.32;7.47;;;461.60;2380.80;;;;;;5417599;26;20443;-73
2024/04/13 00:21:08;;;;;;;13.80;9.02;;;461.70;2380.80;;;;;;5418909;26;20008;-73
2024/04/13 00:23:34;;;;;;;14.95;9.10;;;461.70;2380.80;;;;;;5418969;26;20018;-73
2024/04/13 00:26:00;;;;;;;13.57;8.90;;;461.60;2380.80;;;;;;5418649;26;19992;-72
2024/04/13 00:28:26;;;;;;;16.10;9.00;;;461.60;2380.80;;;;;;5419005;26;20045;-72
2024/04/13 00:30:52;;;;;;;15.70;8.98;;;461.60;2380.80;;;;;;5418975;26;19999;-73
2024/04/13 00:33:18;;;;;;;15.15;8.93;;;461.60;2380.80;;;;;;5418798;26;20389;-73
2024/04/13 00:35:45;;;;;;;17.75;8.60;;;461.60;2380.80;;;;;;5418486;26;20040;-74
2024/04/13 00:38:13;;;;;;;19.50;10.55;;;461.60;2380.80;;;;;;5418949;26;20019;-72
2024/04/13 00:40:40;;;;;;;13.52;9.02;;;461.60;2380.80;;;;;;5418705;26;20442;-77
2024/04/13 00:43:07;;;;;;;12.82;8.48;;;461.50;2380.80;;;;;;5418678;26;20018;-73
2024/04/13 00:45:42;;;;;;;13.15;9.40;;;461.60;2380.80;;;;;;5394996;26;20011;-72
2024/04/13 00:48:23;;;;;;;11.27;8.68;;;461.50;2380.80;;;;;;5418370;26;20458;-72
2024/04/13 00:51:00;;;;;;;15.77;8.38;;;461.30;2380.80;;;;;;5418450;26;20460;-74
2024/04/13 00:53:29;;;;;;;13.20;8.38;;;461.20;2380.80;;;;;;5418421;26;20496;-73
2024/04/13 00:55:58;;;;;;;13.65;8.55;;;461.10;2380.80;;;;;;5418147;26;20000;-74
2024/04/13 00:58:30;;;;;;;16.05;9.05;;;461.10;2380.80;;;;;;5418457;26;19991;-76
2024/04/13 01:00:58;;;;;;;12.82;9.07;;;461.10;2380.80;;;;;;5418067;26;19999;-73
2024/04/13 01:03:24;;;;;;;14.35;9.57;;;461.00;2380.80;;;;;;5417884;26;20008;-73
2024/04/13 01:05:51;;;;;;;19.15;9.23;;;460.90;2380.80;;;;;;5418164;26;20087;-73
2024/04/13 01:08:19;;;;;;;16.23;9.57;;;460.80;2380.80;;;;;;5418204;26;19996;-73
2024/04/13 01:10:48;;;;;;;15.20;9.60;;;436.00;2355.20;;;;;;5418585;26;20015;-73
2024/04/13 01:13:16;;;;;;;17.10;9.38;;;436.10;2355.20;;;;;;5418425;26;20007;-73
2024/04/13 01:15:42;;;;;;;13.35;9.25;;;460.80;2380.80;;;;;;5417675;26;20036;-77
2024/04/13 01:18:10;;;;;;;18.83;10.20;;;436.10;2355.20;;;;;;5417860;26;20007;-73
2024/04/13 01:20:40;;;;;;;18.52;9.88;;;436.00;2355.20;;;;;;5418288;26;20004;-76
2024/04/13 01:23:11;;;;;;;14.07;9.32;;;436.00;2355.20;;;;;;5417941;26;19996;-71
2024/04/13 01:25:41;;;;;;;15.70;10.48;;;436.00;2355.20;;;;;;5417194;26;20012;-73
2024/04/13 01:28:12;;;;;;;20.05;10.35;;;435.90;2355.20;;;;;;5418175;26;20004;-73
2024/04/13 01:30:40;;;;;;;14.85;9.63;;;435.90;2355.20;;;;;;5417887;26;20012;-73
2024/04/13 01:33:06;;;;;;;16.15;9.98;;;435.80;2355.20;;;;;;5417824;26;20368;-73
2024/04/13 01:35:32;;;;;;;13.52;10.15;;;435.90;2355.20;;;;;;5417937;26;20011;-73
2024/04/13 01:37:58;;;;;;;22.65;10.35;;;435.90;2355.20;;;;;;5417810;26;20020;-73
2024/04/13 01:40:24;;;;;;;16.48;9.85;;;435.70;2355.20;;;;;;5417590;26;20008;-74
2024/04/13 01:42:49;;;;;;;21.00;11.70;;;435.70;2355.20;;;;;;5417742;26;20077;-73
2024/04/13 01:45:15;;;;;;;19.25;10.23;;;435.80;2355.20;;;;;;5416132;26;20011;-75
2024/04/13 01:47:41;;;;;;;14.35;10.60;;;435.80;2355.20;;;;;;5417614;26;20025;-77
2024/04/13 01:50:07;;;;;;;14.43;9.85;;;435.80;2355.20;;;;;;5417528;26;20407;-73
2024/04/13 01:52:33;;;;;;;22.15;9.85;;;435.80;2355.20;;;;;;5417647;26;20065;-75
2024/04/13 01:54:59;;;;;;;14.35;10.07;;;435.70;2355.20;;;;;;5417196;26;20011;-74
2024/04/13 01:57:25;;;;;;;14.88;10.38;;;435.70;2355.20;;;;;;5417605;26;20455;-73
2024/04/13 01:59:51;;;;;;;13.05;10.43;;;435.80;2355.20;;;;;;5417384;26;20011;-73
2024/04/13 02:02:17;;;;;;;22.10;10.27;;;435.80;2355.20;;;;;;5417326;26;19996;-72
2024/04/13 02:04:42;;;;;;;15.32;10.80;;;435.70;2355.20;;;;;;5417293;26;20011;-72
2024/04/13 02:07:09;;;;;;;20.55;10.68;;;435.80;2355.20;;;;;;5409775;26;20000;-74
2024/04/13 02:09:35;;;;;;;21.48;11.38;;;435.70;2355.20;;;;;;5412367;26;20443;-72
2024/04/13 02:12:01;;;;;;;19.02;11.77;;;435.70;2355.20;;;;;;5418553;26;20006;-72
2024/04/13 02:14:27;;;;;;;15.10;10.55;;;435.60;2355.20;;;;;;5420869;26;20030;-73
2024/04/13 02:16:53;;;;;;;16.73;10.57;;;435.40;2355.20;;;;;;5420713;26;20342;-73
2024/04/13 02:19:19;;;;;;;17.48;11.07;;;435.50;2355.20;;;;;;5420592;26;20003;-76
2024/04/13 02:21:47;;;;;;;14.48;10.30;;;435.30;2355.20;;;;;;5420460;26;20099;-72
2024/04/13 02:24:13;;;;;;;17.75;11.00;;;;;;;;;;5420663;26;20031;-72
2024/04/13 02:26:39;;;;;;;15.93;10.15;;;435.30;2355.20;;;;;;5420218;26;20326;-73
2024/04/13 02:29:05;;;;;;;18.15;11.13;;;435.20;2355.20;;;;;;5420270;26;20461;-73
2024/04/13 02:31:31;;;;;;;17.65;11.32;;;410.50;2355.20;;;;;;5420248;26;19995;-73
2024/04/13 02:33:56;;;;;;;22.88;12.82;;;410.30;2355.20;;;;;;5420031;26;20013;-72
2024/04/13 02:36:22;;;;;;;17.52;11.68;;;410.20;2355.20;;;;;;5420553;26;19995;-76
2024/04/13 02:38:48;;;;;;;17.13;11.75;;;410.10;2355.20;;;;;;5420067;26;20081;-72
2024/04/13 02:41:14;;;;;;;24.95;12.55;;;410.00;2355.20;;;;;;5420421;26;20436;-73
2024/04/13 02:43:40;;;;;;;23.27;11.77;;;410.00;2355.20;;;;;;5419940;26;20000;-73
2024/04/13 02:46:08;;;;;;;16.42;12.85;;;410.00;2355.20;;;;;;5420164;26;20488;-73
2024/04/13 02:48:44;;;;;;;20.23;13.27;;;410.00;2355.20;;;;;;5420073;26;20081;-71
2024/04/13 02:51:10;;;;;;;20.48;12.82;;;409.90;2355.20;;;;;;5420405;26;20467;-76
2024/04/13 02:53:37;;;;;;;23.27;13.15;;;410.00;2355.20;;;;;;5419811;26;20019;-76
2024/04/13 02:56:04;;;;;;;24.55;14.13;;;410.00;2355.20;;;;;;5420273;26;19995;-73
2024/04/13 02:58:30;;;;;;;23.02;13.15;;;410.20;2355.20;;;;;;5420108;26;19995;-73
2024/04/13 03:00:58;;;;;;;26.92;13.25;;;410.30;2355.20;;;;;;5420229;26;19996;-72
2024/04/13 03:03:25;;;;;;;27.67;13.05;;;410.40;2355.20;;;;;;5419469;26;20014;-73
2024/04/13 03:06:16;;;;;;;20.50;13.13;;;410.40;2355.20;;;;;;5420241;26;19999;-71
2024/04/13 03:08:42;;;;;;;20.80;13.65;;;410.30;2355.20;;;;;;5401534;26;20010;-71
2024/04/13 03:11:11;;;;;;;27.42;13.68;;;410.40;2355.20;;;;;;5419521;26;20003;-72
2024/04/13 03:13:38;;;;;;;20.55;13.30;;;410.50;2355.20;;;;;;5419801;26;20010;-72
2024/04/13 03:16:06;;;;;;;23.67;14.25;;;410.50;2355.20;;;;;;5419692;26;19999;-74
2024/04/13 03:18:33;;;;;;;22.60;13.15;;;410.50;2355.20;;;;;;5419985;26;19999;-72
2024/04/13 03:21:00;;;;;;;24.70;13.15;;;410.50;2355.20;;;;;;5419599;26;20000;-72
2024/04/13 03:23:29;;;;;;;21.27;13.32;;;410.50;2355.20;;;;;;5419625;26;20511;-71
2024/04/13 03:25:55;;;;;;;23.10;13.90;;;435.20;2355.20;;;;;;5419208;26;20069;-71
2024/04/13 03:28:25;;;;;;;21.85;13.95;;;410.30;2355.20;;;;;;5419296;26;20015;-72
2024/04/13 03:30:51;;;;;;;24.23;14.02;;;410.10;2355.20;;;;;;5420016;26;19992;-72
2024/04/13 03:33:17;;;;;;;24.25;14.75;;;410.00;2355.20;;;;;;5419770;26;20011;-72
2024/04/13 03:35:43;;;;;;;27.13;13.48;;;410.20;2355.20;;;;;;5419643;26;20000;-71
2024/04/13 03:38:08;;;;;;;32.03;14.07;;;410.20;2355.20;;;;;;5419151;26;19999;-71
2024/04/13 03:40:34;;;;;;;27.55;13.90;;;410.20;2355.20;;;;;;5419162;26;20037;-71
2024/04/13 03:43:00;;;;;;;24.58;13.68;;;410.20;2355.20;;;;;;5417928;26;20656;-72
2024/04/13 03:45:26;;;;;;;30.92;16.90;;;410.30;2355.20;;;;;;5418991;26;19992;-73
2024/04/13 03:47:52;;;;;;;24.65;14.93;;;410.30;2355.20;;;;;;5419480;26;20011;-72
2024/04/13 03:50:18;;;;;;;32.10;16.88;;;410.30;2355.20;;;;;;5418840;26;19995;-71
2024/04/13 03:52:44;;;;;;;40.05;18.00;;;410.30;2355.20;;;;;;5411653;26;20041;-71
2024/04/13 03:55:10;;;;;;;31.35;18.15;;;410.20;2355.20;;;;;;5416840;26;20002;-71
2024/04/13 03:57:36;;;;;;;31.65;19.63;;;410.20;2355.20;;;;;;5419482;26;20011;-71
2024/04/13 04:00:06;;;;;;;44.90;21.13;;;410.20;2355.20;;;;;;5419489;26;20335;-74
2024/04/13 04:02:33;;;;;;;38.22;19.92;;;410.20;2355.20;;;;;;5419085;26;20003;-72
2024/04/13 04:04:59;;;;;;;32.63;18.50;;;410.10;2355.20;;;;;;5418977;26;20007;-70
2024/04/13 04:07:24;;;;;;;30.15;16.50;;;410.00;2355.20;;;;;;5419307;26;19996;-74
2024/04/13 04:09:50;;;;;;;31.67;17.80;;;409.90;2355.20;;;;;;5418460;26;20342;-73
2024/04/13 04:12:16;;;;;;;32.78;17.23;;;409.70;2355.20;;;;;;5419097;26;20354;-71
2024/04/13 04:14:42;;;;;;;35.92;17.58;;;384.90;2329.60;;;;;;5418891;26;20509;-72
2024/04/13 04:17:08;;;;;;;39.45;17.83;;;384.80;2329.60;;;;;;5419076;26;20004;-71
2024/04/13 04:19:34;;;;;;;33.65;18.17;;;384.70;2329.60;;;;;;5419000;26;20014;-71
2024/04/13 04:22:00;;;;;;;27.35;17.48;;;384.70;2329.60;;;;;;5413663;26;20448;-70
2024/04/13 04:24:26;;;;;;;32.60;18.80;;;384.50;2329.60;;;;;;5397611;26;20440;-71
2024/04/13 04:26:51;;;;;;;32.10;19.67;;;384.60;2329.60;;;;;;5398989;26;20006;-70
2024/04/13 04:29:17;;;;;;;34.17;18.02;;;384.50;2329.60;;;;;;5401265;26;20411;-71
2024/04/13 04:31:43;;;;;;;31.52;17.90;;;384.60;2329.60;;;;;;5405809;26;20000;-73
2024/04/13 04:34:09;;;;;;;32.05;16.02;;;384.70;2329.60;;;;;;5400347;26;20024;-71
2024/04/13 04:36:35;;;;;;;28.65;16.15;;;384.70;2329.60;;;;;;5411488;26;20068;-71
2024/04/13 04:39:02;;;;;;;32.97;15.85;;;384.70;2329.60;;;;;;5393046;26;20048;-72
2024/04/13 04:41:28;;;;;;;35.65;18.33;;;384.90;2329.60;;;;;;5396794;26;20467;-70
2024/04/13 04:43:54;;;;;;;40.70;21.23;;;384.80;2329.60;;;;;;5403708;26;20440;-74
2024/04/13 04:46:21;;;;;;;38.03;19.75;;;384.80;2329.60;;;;;;5403109;26;19996;-71
2024/04/13 04:48:50;;;;;;;38.80;21.77;;;384.70;2329.60;;;;;;5390958;26;20045;-73
2024/04/13 04:51:19;;;;;;;44.38;24.60;;;384.70;2329.60;;;;;;5389624;26;20007;-73
2024/04/13 04:53:45;;;;;;;50.25;22.65;;;384.60;2329.60;;;;;;5403405;26;20000;-73
2024/04/13 04:56:11;;;;;;;45.55;23.48;;;384.60;2329.60;;;;;;5400455;26;19992;-70
2024/04/13 04:58:37;;;;;;;45.13;24.48;;;384.60;2329.60;;;;;;5397806;26;19995;-71
2024/04/13 05:01:05;;;;;;;43.03;23.90;;;384.70;2329.60;;;;;;5403926;26;20010;-70
2024/04/13 05:03:30;;;;;;;46.22;23.77;;;384.70;2329.60;;;;;;5400619;26;19996;-71
2024/04/13 05:05:57;;;;;;;47.42;23.70;;;384.70;2329.60;;;;;;5398739;26;20454;-71
2024/04/13 05:08:23;;;;;;;46.80;24.80;;;384.90;2329.60;;;;;;5408014;26;20078;-73
2024/04/13 05:10:49;;;;;;;52.45;24.67;;;409.70;2355.20;;;;;;5400663;26;20410;-72
2024/04/13 05:13:15;;;;;;;47.58;25.80;;;409.80;2355.20;;;;;;5416375;26;20007;-74
2024/04/13 05:15:41;;;;;;;45.70;24.35;;;409.90;2355.20;;;;;;5400253;26;20463;-74
2024/04/13 05:18:08;;;;;;;50.80;24.77;;;410.00;2355.20;;;;;;5397593;26;20016;-73
2024/04/13 05:20:36;;;;;;;54.67;26.85;;;410.00;2355.20;;;;;;5405613;26;20032;-72
2024/04/13 05:23:05;;;;;;;50.20;27.20;;;410.00;2355.20;;;;;;5400062;26;20014;-72
2024/04/13 05:25:32;;;;;;;48.97;24.65;;;410.20;2355.20;;;;;;5407066;26;20000;-74
2024/04/13 05:27:58;;;;;;;52.17;25.52;;;410.10;2355.20;;;;;;5404981;26;19996;-71
2024/04/13 05:30:24;;;;;;;52.13;25.83;;;410.20;2355.20;;;;;;5390310;26;20000;-74
2024/04/13 05:32:51;;;;;;;42.67;24.63;;;410.20;2355.20;;;;;;5389285;26;19996;-74
2024/04/13 05:35:18;;;;;;;44.38;24.58;;;410.30;2355.20;;;;;;5402627;26;20046;-73
2024/04/13 05:37:44;;;;;;;41.17;23.50;;;410.50;2355.20;;;;;;5410181;26;20319;-74
2024/04/13 05:40:13;;;;;;;58.85;23.90;;;410.50;2355.20;;;;;;5401857;26;19995;-74
2024/04/13 05:42:39;;;;;;;48.00;23.75;;;410.50;2355.20;;;;;;5396891;26;19996;-74
2024/04/13 05:45:05;;;;;;;39.75;22.48;;;435.30;2355.20;;;;;;5395633;26;20000;-74
2024/04/13 05:47:32;;;;;;;45.92;23.33;;;435.40;2355.20;;;;;;5401747;26;20011;-77
2024/04/13 05:50:02;;;;;;;47.30;24.63;;;435.50;2355.20;;;;;;5395867;26;20032;-74
2024/04/13 05:52:28;;;;;;;44.38;23.00;;;435.60;2355.20;;;;;;5398376;26;20011;-73
2024/04/13 05:54:54;;;;;;;50.63;22.30;;;435.60;2355.20;;;;;;5394163;26;20001;-74
2024/04/13 05:57:20;;;;;;;60.88;24.15;;;435.80;2355.20;;;;;;5398465;26;20305;-73
2024/04/13 05:59:45;;;;;;;41.70;22.95;;;435.80;2355.20;;;;;;5394229;26;20074;-73
2024/04/13 06:02:11;;;;;;;44.13;21.98;;;435.90;2355.20;;;;;;5388124;26;19999;-73
2024/04/13 06:04:37;;;;;;;37.97;21.65;;;460.80;2380.80;;;;;;5396767;26;20036;-73
2024/04/13 06:07:03;;;;;;;45.28;22.88;;;460.80;2380.80;;;;;;5389537;26;20066;-72
2024/04/13 06:09:29;;;;;;;38.83;21.10;;;460.90;2380.80;;;;;;5397470;26;20421;-72
2024/04/13 06:11:55;;;;;;;43.97;22.63;;;461.00;2380.80;;;;;;5397531;26;19992;-73
2024/04/13 06:14:20;;;;;;;37.65;21.10;;;461.20;2380.80;;;;;;5383094;26;20004;-74
2024/04/13 06:16:46;;;;;;;35.33;20.63;;;461.30;2380.80;;;;;;5384683;26;19996;-73
2024/04/13 06:19:13;;;;;;;39.45;19.40;;;461.50;2380.80;;;;;;5399190;26;19992;-74
2024/04/13 06:21:41;;;;;;;36.67;16.95;;;461.60;2380.80;;;;;;5395483;26;20008;-73
2024/04/13 06:24:07;;;;;;;32.22;18.08;;;461.70;2380.80;;;;;;5405839;26;20040;-73
2024/04/13 06:26:34;;;;;;;29.75;17.30;;;486.40;2380.80;;;;;;5404548;26;20007;-73
2024/04/13 06:29:00;;;;;;;37.10;17.58;;;486.50;2380.80;;;;;;5401078;26;20000;-73
2024/04/13 06:31:26;;;;;;;35.65;14.65;;;486.70;2380.80;;;;;;5392594;26;20431;-74
2024/04/13 06:33:52;;;;;;;27.50;14.55;;;486.80;2380.80;;;;;;5400011;26;19995;-75
2024/04/13 06:36:18;;;;;;;28.48;15.65;;;486.80;2380.80;;;;;;5392419;26;19992;-73
2024/04/13 06:38:44;;;;;;;31.70;15.27;;;486.90;2380.80;;;;;;5396926;26;20015;-74
2024/04/13 06:41:10;;;;;;;30.13;16.80;;;487.00;2380.80;;;;;;5395065;26;20428;-75
2024/04/13 06:43:35;;;;;;;35.72;17.17;;;487.20;2380.80;;;;;;5401246;26;20019;-74
2024/04/13 06:46:01;;;;;;;31.63;17.92;;;487.30;2380.80;;;;;;5392823;26;20000;-72
2024/04/13 06:48:28;;;;;;;29.65;14.65;;;512.10;2380.80;;;;;;5393958;26;20396;-72
2024/04/13 06:50:54;;;;;;;23.88;13.93;;;512.20;2380.80;;;;;;5393048;26;20028;-72
2024/04/13 06:53:20;;;;;;;18.88;12.57;;;512.50;2380.80;;;;;;5401550;26;20004;-72
2024/04/13 06:55:46;;;;;;;25.83;11.57;;;512.80;2380.80;;;;;;5399982;26;19996;-72
2024/04/13 06:58:12;;;;;;;22.83;11.73;;;537.60;2304.00;;;;;;5394221;26;20011;-72
2024/04/13 07:00:38;;;;;;;30.90;13.60;;;537.70;2252.80;;;;;;5399737;26;20030;-73
2024/04/13 07:03:05;;;;;;;21.58;10.65;;;538.00;2201.60;;;;;;5394906;26;20067;-71
2024/04/13 07:05:31;;;;;;;18.60;10.57;;;538.20;2099.20;;;;;;5394339;26;19997;-73
2024/04/13 07:07:56;;;;;;;19.15;10.32;;;538.30;2048.00;;;;;;5401743;26;20014;-75
2024/04/13 07:10:22;;;;;;;22.42;10.05;;;538.50;2022.40;;;;;;5402814;26;20000;-73
2024/04/13 07:12:48;;;;;;;25.67;11.93;;;563.40;2048.00;;;;;;5405415;26;20437;-72
2024/04/13 07:15:14;;;;;;;23.40;11.73;;;563.60;2048.00;;;;;;5397535;26;20004;-73
2024/04/13 07:17:40;;;;;;;28.77;11.38;;;564.00;2022.40;;;;;;5400676;26;20010;-72
2024/04/13 07:20:07;;;;;;;21.20;10.77;;;588.80;1894.40;;;;;;5392937;26;20077;-75
2024/04/13 07:22:33;;;;;;;31.00;15.68;;;589.00;1894.40;;;;;;5400953;26;20028;-72
2024/04/13 07:24:59;;;;;;;39.30;17.08;;;589.10;1868.80;;;;;;5389586;26;20074;-75
2024/04/13 07:27:25;;;;;;;33.75;13.90;;;;;;;;;;5405444;26;20369;-72
2024/04/13 07:29:51;;;;;;;36.55;16.20;;;589.30;1817.60;;;;;;5405237;26;19999;-71
2024/04/13 07:32:17;;;;;;;44.30;18.77;;;;;;;;;;5395756;26;20440;-74
2024/04/13 07:34:43;;;;;;;36.53;16.27;;;589.70;1843.20;;;;;;5398094;26;19999;-75
2024/04/13 07:37:10;;;;;;;33.97;17.05;;;614.60;1792.00;;;;;;5402215;26;20015;-75
2024/04/13 07:39:36;;;;;;;29.58;12.35;;;614.80;1766.40;;;;;;5391788;26;20036;-72
2024/04/13 07:42:02;;;;;;;33.95;14.88;;;614.70;1664.00;;;;;;5408765;26;20000;-75
2024/04/13 07:44:28;;;;;;;24.60;13.20;;;614.90;1664.00;;;;;;5399719;26;20073;-73
2024/04/13 07:46:54;;;;;;;36.95;13.52;;;615.00;1715.20;;;;;;5407522;26;20300;-71
2024/04/13 07:49:23;;;;;;;33.85;14.23;;;615.20;1689.60;;;;;;5384725;26;20014;-72
2024/04/13 07:51:49;;;;;;;17.05;8.77;;;615.20;1664.00;;;;;;5398927;26;20073;-72
2024/04/13 07:54:15;;;;;;;14.65;8.95;;;615.30;1587.20;;;;;;5415639;26;20404;-75
2024/04/13 07:56:40;;;;;;;22.63;9.30;;;640.00;1561.60;;;;;;5401431;26;20053;-72
2024/04/13 07:59:06;;;;;;;14.35;8.40;;;640.30;1536.00;;;;;;5403244;26;20096;-71
2024/04/13 08:01:32;;;;;;;18.90;8.90;;;640.40;1536.00;;;;;;5395323;26;20018;-71
2024/04/13 08:03:59;;;;;;;28.17;11.85;;;640.50;1510.40;;;;;;5394926;26;20001;-75
2024/04/13 08:06:25;;;;;;;25.60;10.98;;;640.40;1536.00;;;;;;5388206;26;20471;-72
2024/04/13 08:08:51;;;;;;;25.02;8.05;;;640.40;1536.00;;;;;;5397891;26;20007;-74
2024/04/13 08:11:17;;;;;;;21.20;8.50;;;640.80;1459.20;;;;;;5404731;26;20455;-72
2024/04/13 08:13:43;;;;;;;29.88;11.95;;;640.90;1459.20;;;;;;5388756;26;19996;-72
2024/04/13 08:16:09;;;;;;;13.50;6.75;;;665.60;1484.80;;;;;;5401247;26;20007;-72
2024/04/13 08:18:36;;;;;;;14.35;7.30;;;665.60;1408.00;;;;;;5393247;26;20012;-72
2024/04/13 08:21:02;;;;;;;18.67;7.65;;;665.90;1382.40;;;;;;5396015;26;20028;-73
2024/04/13 08:23:28;;;;;;;14.30;7.40;;;665.90;1408.00;;;;;;5392638;26;20003;-75
2024/04/13 08:26:02;;;;;;;19.30;7.85;;;665.90;1382.40;;;;;;5405287;26;19992;-72
2024/04/13 08:28:27;;;;;;;17.95;7.50;;;666.10;1382.40;;;;;;5402305;26;20475;-72
2024/04/13 08:30:55;;;;;;;21.30;8.57;;;666.30;1356.80;;;;;;5415292;26;20069;-74
2024/04/13 08:33:21;;;;;;;17.17;6.93;;;666.50;1356.80;;;;;;5392841;26;22085;-71
2024/04/13 08:35:47;;;;;;;12.20;6.10;;;666.40;1331.20;;;;;;5401558;26;20325;-71
2024/04/13 08:38:13;;;;;;;19.30;6.55;;;691.20;1331.20;;;;;;5409367;26;20004;-70
2024/04/13 08:40:48;;;;;;;15.82;7.38;;;691.30;1356.80;;;;;;5406541;26;20003;-72
2024/04/13 08:43:15;;;;;;;16.23;6.70;;;691.30;1331.20;;;;;;5393620;26;20427;-71
2024/04/13 08:45:41;;;;;;;13.23;6.18;;;691.40;1305.60;;;;;;5407001;26;20015;-72
2024/04/13 08:48:09;;;;;;;14.65;7.40;;;691.70;1280.00;;;;;;5396731;26;20003;-72
2024/04/13 08:50:36;;;;;;;19.75;9.57;;;691.80;1280.00;;;;;;5393301;26;20004;-73
2024/04/13 08:53:05;;;;;;;16.90;6.63;;;692.00;1305.60;;;;;;5389972;26;20007;-73
2024/04/13 08:55:34;;;;;;;11.35;5.70;;;716.80;1305.60;;;;;;5393754;26;20335;-75
2024/04/13 08:58:03;;;;;;;9.75;4.35;;;716.90;1280.00;;;;;;5390169;26;20446;-73
2024/04/13 09:00:31;;;;;;;8.55;4.78;;;717.10;1280.00;;;;;;5406896;26;19999;-75
2024/04/13 09:02:57;;;;;;;9.77;4.28;;;692.10;1254.40;;;;;;5397495;26;20048;-73
2024/04/13 09:05:26;;;;;;;10.80;5.25;;;716.90;1280.00;;;;;;5387189;26;19992;-74
2024/04/13 09:07:54;;;;;;;11.27;4.68;;;716.90;1305.60;;;;;;5401950;26;19999;-75
2024/04/13 09:10:21;;;;;;;11.63;5.20;;;717.30;1280.00;;;;;;5390858;26;20455;-74
2024/04/13 09:12:47;;;;;;;10.25;4.10;;;717.40;1305.60;;;;;;5392470;26;20014;-74
2024/04/13 09:15:13;;;;;;;17.55;4.40;;;717.40;1280.00;;;;;;5391221;26;19997;-73
2024/04/13 09:17:39;;;;;;;5.95;2.92;;;717.40;1280.00;;;;;;5401015;26;19992;-80
2024/04/13 09:20:09;;;;;;;11.55;3.55;;;717.20;1280.00;;;;;;5389328;26;19995;-74
2024/04/13 09:22:36;;;;;;;7.40;3.03;;;717.40;1280.00;;;;;;5394355;26;20001;-74
2024/04/13 09:25:03;;;;;;;6.50;3.33;;;717.50;1254.40;;;;;;5397924;26;20000;-74
2024/04/13 09:27:30;;;;;;;7.75;3.20;;;717.40;1254.40;;;;;;5389478;26;20009;-73
2024/04/13 09:30:06;;;;;;;4.95;2.42;;;717.70;1280.00;;;;;;5385546;26;20016;-74
2024/04/13 09:32:31;;;;;;;11.93;3.55;;;717.50;1280.00;;;;;;5402094;26;20420;-73
2024/04/13 09:35:10;;;;;;;6.05;2.80;;;717.70;1280.00;;;;;;5399708;26;20053;-74
2024/04/13 09:37:36;;;;;;;5.03;2.67;;;742.40;1305.60;;;;;;5396608;26;20073;-75
2024/04/13 09:40:03;;;;;;;7.50;3.00;;;742.60;1254.40;;;;;;5399544;26;20019;-73
2024/04/13 09:42:29;;;;;;;5.07;3.00;;;742.80;1280.00;;;;;;5391885;26;20004;-74
2024/04/13 09:45:06;;;;;;;6.45;3.13;;;742.60;1254.40;;;;;;5409538;26;20013;-74
2024/04/13 09:47:32;;;;;;;13.73;3.45;;;742.60;1280.00;;;;;;5396965;26;19995;-76
2024/04/13 09:49:58;;;;;;;8.60;2.75;;;742.80;1228.80;;;;;;5394091;26;20015;-75
2024/04/13 09:52:24;;;;;;;6.60;3.38;;;743.00;1254.40;;;;;;5397667;26;20015;-74
2024/04/13 09:54:51;;;;;;;7.57;3.30;;;743.00;1254.40;;;;;;5403931;26;20053;-75
2024/04/13 09:57:18;;;;;;;6.82;3.05;;;742.90;1254.40;;;;;;5410203;26;20050;-74
2024/04/13 09:59:47;;;;;;;8.48;3.25;;;743.10;1228.80;;;;;;5400683;26;20007;-74
2024/04/13 10:02:13;;;;;;;18.17;3.15;;;743.20;1203.20;;;;;;5404047;26;20018;-73
2024/04/13 10:04:39;;;;;;;9.18;2.50;;;743.30;1228.80;;;;;;5389855;26;20064;-75
2024/04/13 10:07:07;;;;;;;5.25;2.58;;;743.30;1228.80;;;;;;5390308;26;20008;-73
2024/04/13 10:09:34;;;;;;;8.57;3.40;;;743.10;1228.80;;;;;;5394005;26;20000;-74
2024/04/13 10:12:01;;;;;;;9.13;2.90;;;742.80;1228.80;;;;;;5398393;26;20000;-74
2024/04/13 10:14:28;;;;;;;9.13;3.00;;;742.60;1280.00;;;;;;5390445;26;20008;-74
2024/04/13 10:16:57;;;;;;;6.60;3.35;;;742.80;1254.40;;;;;;5400868;26;20005;-74
2024/04/13 10:19:23;;;;;;;6.22;2.55;;;742.50;1254.40;;;;;;5395487;26;20432;-73
2024/04/13 10:21:57;;;;;;;20.63;3.63;;;717.60;1254.40;;;;;;5390282;26;20001;-73
2024/04/13 10:24:23;;;;;;;8.88;3.40;;;717.50;1254.40;;;;;;5393312;26;20470;-72
2024/04/13 10:26:48;;;;;;;9.50;3.35;;;717.20;1280.00;;;;;;5381750;26;20011;-73
2024/04/13 10:29:25;;;;;;;5.72;2.40;;;717.10;1305.60;;;;;;5405897;26;20422;-73
2024/04/13 10:31:51;;;;;;;10.00;2.88;;;717.20;1305.60;;;;;;5410945;26;20030;-73
2024/04/13 10:34:24;;;;;;;7.90;2.95;;;717.30;1254.40;;;;;;5394332;26;20000;-73
2024/04/13 10:36:57;;;;;;;5.82;3.05;;;717.50;1280.00;;;;;;5402626;26;20001;-72
2024/04/13 10:39:23;;;;;;;7.18;2.65;;;742.40;1280.00;;;;;;5399880;26;20007;-73
2024/04/13 10:41:50;;;;;;;4.68;2.50;;;717.50;1254.40;;;;;;5397173;26;20000;-74
2024/04/13 10:44:26;;;;;;;6.00;2.42;;;717.60;1228.80;;;;;;5397424;26;20020;-74
2024/04/13 10:46:51;;;;;;;;;;;742.80;1228.80;;;;;;5401600;26;20006;-76
2024/04/13 10:49:18;;;;;;;8.63;2.78;;;743.10;1228.80;;;;;;5396350;26;19925;-73
2024/04/13 10:51:46;;;;;;;7.82;2.33;;;743.30;1228.80;;;;;;5406086;26;20076;-74
2024/04/13 10:54:16;;;;;;;9.68;2.33;;;768.10;1177.60;;;;;;5388363;26;20397;-75
2024/04/13 10:56:45;;;;;;;8.93;2.47;;;768.30;1177.60;;;;;;5413483;26;20011;-74
2024/04/13 10:59:11;;;;;;;4.35;2.72;;;768.40;1152.00;;;;;;5403983;26;20348;-73
2024/04/13 11:01:43;;;;;;;3.58;2.42;;;768.40;1152.00;;;;;;5404513;26;20012;-73
2024/04/13 11:04:11;;;;;;;5.28;2.17;;;768.40;1152.00;;;;;;5408387;26;20012;-73
2024/04/13 11:06:40;;;;;;;9.93;2.53;;;768.40;1126.40;;;;;;5388022;26;20321;-73
2024/04/13 11:09:07;;;;;;;4.40;2.25;;;768.40;1126.40;;;;;;5396860;26;20010;-73
2024/04/13 11:11:34;;;;;;;4.93;2.35;;;768.40;1126.40;;;;;;5396061;26;20032;-74
2024/04/13 11:14:00;;;;;;;3.78;2.25;;;768.10;1100.80;;;;;;5398043;26;20006;-74
2024/04/13 11:16:26;;;;;;;7.63;2.30;;;768.10;1177.60;;;;;;5400218;26;20015;-74
2024/04/13 11:18:52;;;;;;;20.73;3.17;;;768.10;1152.00;;;;;;5391015;26;20000;-73
2024/04/13 11:21:22;;;;;;;6.35;2.20;;;768.30;1152.00;;;;;;5413688;26;20081;-72
2024/04/13 11:23:48;;;;;;;6.47;2.35;;;768.60;1152.00;;;;;;5388196;26;20004;-72
2024/04/13 11:26:14;;;;;;;7.82;3.13;;;768.60;1152.00;;;;;;5399723;26;20032;-72
2024/04/13 11:28:40;;;;;;;12.43;4.35;;;768.90;1126.40;;;;;;5396517;26;20007;-73
2024/04/13 11:31:06;;;;;;;3.75;2.45;;;793.60;1177.60;;;;;;5416197;26;20004;-74
2024/04/13 11:33:32;;;;;;;9.63;2.40;;;793.60;1152.00;;;;;;5394617;26;20322;-73
2024/04/13 11:36:00;;;;;;;5.93;2.38;;;793.90;1152.00;;;;;;5390177;26;19992;-72
2024/04/13 11:38:33;;;;;;;7.07;2.65;;;793.80;1152.00;;;;;;5399797;26;20448;-73
2024/04/13 11:40:59;;;;;;;4.88;2.53;;;794.10;1126.40;;;;;;5395454;26;20011;-73
2024/04/13 11:43:25;;;;;;;12.48;2.42;;;794.20;1126.40;;;;;;5401259;26;19991;-73
2024/04/13 11:45:51;;;;;;;5.85;2.42;;;794.40;1126.40;;;;;;5399859;26;19997;-72
2024/04/13 11:48:18;;;;;;;5.05;2.08;;;794.50;1126.40;;;;;;5392968;26;20019;-72
2024/04/13 11:50:46;;;;;;;8.00;3.20;;;794.50;1100.80;;;;;;5392009;26;20387;-73
2024/04/13 11:53:12;;;;;;;5.20;1.95;;;794.00;1100.80;;;;;;5398445;26;20013;-72
2024/04/13 11:55:39;;;;;;;3.13;1.75;;;793.90;1126.40;;;;;;5399428;26;19996;-73
2024/04/13 11:58:06;;;;;;;5.97;2.92;;;793.80;1126.40;;;;;;5407057;26;20072;-72
2024/04/13 12:00:31;;;;;;;5.18;2.20;;;794.00;1152.00;;;;;;5408013;26;20327;-72
2024/04/13 12:02:58;;;;;;;6.70;2.30;;;793.90;1152.00;;;;;;5400045;26;20074;-72
2024/04/13 12:05:25;;;;;;;4.22;1.90;;;793.60;1126.40;;;;;;5411502;26;20004;-72